Sealyon — 2CGJ2 — position and weather

sailwx.info

Track history (hours):
 
Tides and Currents Weather Stations Pressure Air Temp Water Temp Dewpoint Dewpoint Depression Visibility Wind Speed Wind Dir Waves Ship Positions

Sealyon

Last reported at 2015-Mar-12 16:28 UTC. Time now 2015-Apr-28 14:27 UTC.
Position N 18°18' W 064°53'.
Warning: this ship's position is 46 days out of date.

Length 62 m; draft 3.2 m.

Type: Pleasure craft. MMSI: 235072538.

Date/timePositionNaut miles runAvg speedWind from/ knotsBaromVisibWave heightAir tempDewpointWater temp
2015-Mar-12 16:28N 18°18' W 064°53'1011.5
2015-Mar-12 15:33N 18°23' W 064°43'9 9.5
2015-Mar-12 14:33N 18°25' W 064°33'  
2015-Mar-09 20:23N 18°25' W 064°31'2 0.4
2015-Mar-09 16:33N 18°24' W 064°32'2 0.0
2015-Mar-07 22:12N 18°26' W 064°31'3 4.0
2015-Mar-07 21:33N 18°23' W 064°31'0 0.0
2015-Mar-07 20:33N 18°23' W 064°31'0 0.0
2015-Mar-07 19:34N 18°23' W 064°31'0 0.1
2015-Mar-07 18:34N 18°23' W 064°31'0 0.0
2015-Mar-07 17:33N 18°23' W 064°31'0 0.0
2015-Mar-07 16:34N 18°23' W 064°31'5 4.8
2015-Mar-07 15:33N 18°26' W 064°27'0 0.0
2015-Mar-07 14:34N 18°26' W 064°27'0 0.0
2015-Mar-07 13:34N 18°26' W 064°27'  
Track history (hours):
 
Tides and Currents Weather Stations Pressure Air Temp Water Temp Dewpoint Dewpoint Depression Visibility Wind Speed Wind Dir Waves Ship Positions

Sealyon

Last reported at 2015-Mar-12 16:28 UTC. Time now 2015-Apr-28 14:27 UTC.
Position N 18°18' W 064°53'.
Warning: this ship's position is 46 days out of date.

Length 62 m; draft 3.2 m.

Type: Pleasure craft. MMSI: 235072538.

Date/timePositionNaut miles runAvg speedWind from/ knotsBaromVisibWave heightAir tempDewpointWater temp
2015-Mar-12 16:28N 18°18' W 064°53'1011.5
2015-Mar-12 15:33N 18°23' W 064°43'9 9.5
2015-Mar-12 14:33N 18°25' W 064°33'  
2015-Mar-09 20:23N 18°25' W 064°31'2 0.4
2015-Mar-09 16:33N 18°24' W 064°32'2 0.0
2015-Mar-07 22:12N 18°26' W 064°31'3 4.0
2015-Mar-07 21:33N 18°23' W 064°31'0 0.0
2015-Mar-07 20:33N 18°23' W 064°31'0 0.0
2015-Mar-07 19:34N 18°23' W 064°31'0 0.1
2015-Mar-07 18:34N 18°23' W 064°31'0 0.0
2015-Mar-07 17:33N 18°23' W 064°31'0 0.0
2015-Mar-07 16:34N 18°23' W 064°31'5 4.8
2015-Mar-07 15:33N 18°26' W 064°27'0 0.0
2015-Mar-07 14:34N 18°26' W 064°27'0 0.0
2015-Mar-07 13:34N 18°26' W 064°27'  

Dump ship's entire track history